HTDO

Details ICAO HTDO (DOD)
Name DODOMA
Region Tanzania
Timezone Africa/Dar_es_Salaam (UTC+3.0)
Plans Departing 4
Arriving 9
Stats Elevation 3,637 ft / 1,109 m (AMSL)
Location -6.170434° 35.752577°
Runways 1
Magnetic Variation 0.921° W
Sunrise 2018-05-20 03:40:21 UTC / 2018-05-20 06:40:21 Local
Sunset 2018-05-20 15:29:30 UTC / 2018-05-20 18:29:30 Local
Advertisement - Login to hide

Runways

ID Width Length Bearing (true) Bearing (mag) Surface Threshold Offset Overrun Length
10 98 ft / 30 m 6,415 ft / 1,955 m 91.55° 92.47° Asphalt 0 ft / 0 m 0 ft / 0 m
28 98 ft / 30 m 6,415 ft / 1,955 m 271.55° 272.47° Asphalt 328 ft / 100 m 0 ft / 0 m

Map

Weather


0- 5 10 15 20 25 30 35+ Temperature / ° C

Clouds and Precipitation
Forecast for 2018-05-20 18:00 UTC. Updated an hour ago

Ground ~20,000 ft ~40,000 ft Winds

METAR

HTDO 201800Z 09008KT 9999 FEW022 21/15 Q1017 NOSIG

TAF

TAF HTDO 201700Z 2018/2118 09010KT 9999 FEW022

Frequencies

Tower 119.20 MHz TWR
Approach 119.20 MHz APP
Warning: Do not use this data for real-world aviation or navigation. No guarantee of current accuracy is given.